sensor_id;sensor_type;location;lat;lon;timestamp;temperature;humidity
29345;DHT22;16339;48.748;2.222;2023-04-03T00:00:08;11.80;87.60
29345;DHT22;16339;48.748;2.222;2023-04-03T00:02:37;11.80;87.50
29345;DHT22;16339;48.748;2.222;2023-04-03T00:05:09;11.80;87.30
29345;DHT22;16339;48.748;2.222;2023-04-03T00:07:37;11.80;87.20
29345;DHT22;16339;48.748;2.222;2023-04-03T00:10:08;11.80;87.90
29345;DHT22;16339;48.748;2.222;2023-04-03T00:12:37;11.70;86.90
29345;DHT22;16339;48.748;2.222;2023-04-03T00:15:07;11.60;86.90
29345;DHT22;16339;48.748;2.222;2023-04-03T00:17:36;11.70;87.20
29345;DHT22;16339;48.748;2.222;2023-04-03T00:20:08;11.80;87.10
29345;DHT22;16339;48.748;2.222;2023-04-03T00:22:37;11.80;87.40
29345;DHT22;16339;48.748;2.222;2023-04-03T00:25:07;11.90;87.30
29345;DHT22;16339;48.748;2.222;2023-04-03T00:27:36;11.90;86.90
29345;DHT22;16339;48.748;2.222;2023-04-03T00:30:07;11.90;87.00
29345;DHT22;16339;48.748;2.222;2023-04-03T00:32:36;11.90;87.30
29345;DHT22;16339;48.748;2.222;2023-04-03T00:35:08;11.70;86.80
29345;DHT22;16339;48.748;2.222;2023-04-03T00:37:37;11.70;87.40
29345;DHT22;16339;48.748;2.222;2023-04-03T00:40:07;11.60;87.30
29345;DHT22;16339;48.748;2.222;2023-04-03T00:42:36;11.70;87.40
29345;DHT22;16339;48.748;2.222;2023-04-03T00:45:25;11.60;87.50
29345;DHT22;16339;48.748;2.222;2023-04-03T00:47:54;11.70;87.70
29345;DHT22;16339;48.748;2.222;2023-04-03T00:50:28;11.70;87.70
29345;DHT22;16339;48.748;2.222;2023-04-03T00:52:57;11.70;88.10
29345;DHT22;16339;48.748;2.222;2023-04-03T00:55:27;11.70;87.40
29345;DHT22;16339;48.748;2.222;2023-04-03T00:57:56;11.70;88.10
29345;DHT22;16339;48.748;2.222;2023-04-03T01:00:26;11.70;87.30
29345;DHT22;16339;48.748;2.222;2023-04-03T01:02:55;11.70;87.10
29345;DHT22;16339;48.748;2.222;2023-04-03T01:05:27;11.70;87.00
29345;DHT22;16339;48.748;2.222;2023-04-03T01:07:57;11.70;86.80
29345;DHT22;16339;48.748;2.222;2023-04-03T01:10:26;11.70;86.80
29345;DHT22;16339;48.748;2.222;2023-04-03T01:12:55;11.60;86.50
29345;DHT22;16339;48.748;2.222;2023-04-03T01:15:25;11.60;86.90
29345;DHT22;16339;48.748;2.222;2023-04-03T01:17:57;11.70;86.80
29345;DHT22;16339;48.748;2.222;2023-04-03T01:23:52;11.60;86.80
29345;DHT22;16339;48.748;2.222;2023-04-03T01:26:22;11.50;86.60
29345;DHT22;16339;48.748;2.222;2023-04-03T01:28:53;11.60;86.70
29345;DHT22;16339;48.748;2.222;2023-04-03T01:31:25;11.50;86.70
29345;DHT22;16339;48.748;2.222;2023-04-03T01:33:57;11.60;87.10
29345;DHT22;16339;48.748;2.222;2023-04-03T01:36:28;11.70;87.00
29345;DHT22;16339;48.748;2.222;2023-04-03T01:38:58;11.60;86.90
29345;DHT22;16339;48.748;2.222;2023-04-03T01:41:28;11.70;86.90
29345;DHT22;16339;48.748;2.222;2023-04-03T01:43:57;11.80;86.90
29345;DHT22;16339;48.748;2.222;2023-04-03T01:46:25;11.80;86.90
29345;DHT22;16339;48.748;2.222;2023-04-03T01:48:57;11.80;86.60
29345;DHT22;16339;48.748;2.222;2023-04-03T01:51:25;11.80;86.50
29345;DHT22;16339;48.748;2.222;2023-04-03T01:53:54;11.80;86.30
29345;DHT22;16339;48.748;2.222;2023-04-03T01:56:23;11.60;86.00
29345;DHT22;16339;48.748;2.222;2023-04-03T01:58:52;11.30;86.50
29345;DHT22;16339;48.748;2.222;2023-04-03T02:01:21;11.40;86.80
29345;DHT22;16339;48.748;2.222;2023-04-03T02:03:51;11.50;86.90
29345;DHT22;16339;48.748;2.222;2023-04-03T02:06:22;11.50;87.70
29345;DHT22;16339;48.748;2.222;2023-04-03T02:08:51;11.60;86.90
29345;DHT22;16339;48.748;2.222;2023-04-03T02:11:20;11.70;86.90
29345;DHT22;16339;48.748;2.222;2023-04-03T02:13:48;11.70;86.80
29345;DHT22;16339;48.748;2.222;2023-04-03T02:16:17;11.60;86.50
29345;DHT22;16339;48.748;2.222;2023-04-03T02:18:46;11.70;86.70
29345;DHT22;16339;48.748;2.222;2023-04-03T02:21:15;11.60;86.50
29345;DHT22;16339;48.748;2.222;2023-04-03T02:23:46;11.50;86.80
29345;DHT22;16339;48.748;2.222;2023-04-03T02:26:16;11.60;86.80
29345;DHT22;16339;48.748;2.222;2023-04-03T02:28:45;11.60;86.90
29345;DHT22;16339;48.748;2.222;2023-04-03T02:31:14;11.60;87.00
29345;DHT22;16339;48.748;2.222;2023-04-03T02:33:43;11.60;87.20
29345;DHT22;16339;48.748;2.222;2023-04-03T02:36:11;11.50;87.30
29345;DHT22;16339;48.748;2.222;2023-04-03T02:38:46;11.40;87.60
29345;DHT22;16339;48.748;2.222;2023-04-03T02:41:15;11.30;88.10
29345;DHT22;16339;48.748;2.222;2023-04-03T02:43:43;11.30;88.10
29345;DHT22;16339;48.748;2.222;2023-04-03T02:46:12;11.30;88.10
29345;DHT22;16339;48.748;2.222;2023-04-03T02:48:41;11.30;88.30
29345;DHT22;16339;48.748;2.222;2023-04-03T02:51:10;11.10;88.60
29345;DHT22;16339;48.748;2.222;2023-04-03T02:53:39;11.20;88.60
29345;DHT22;16339;48.748;2.222;2023-04-03T02:56:10;11.30;88.90
29345;DHT22;16339;48.748;2.222;2023-04-03T02:58:39;11.30;88.80
29345;DHT22;16339;48.748;2.222;2023-04-03T03:01:07;11.20;88.00
29345;DHT22;16339;48.748;2.222;2023-04-03T03:03:36;11.30;89.00
29345;DHT22;16339;48.748;2.222;2023-04-03T03:06:07;11.30;88.20
29345;DHT22;16339;48.748;2.222;2023-04-03T03:08:36;11.30;88.00
29345;DHT22;16339;48.748;2.222;2023-04-03T03:11:05;11.30;87.80
29345;DHT22;16339;48.748;2.222;2023-04-03T03:13:37;11.40;87.90
29345;DHT22;16339;48.748;2.222;2023-04-03T03:16:06;11.40;87.70
29345;DHT22;16339;48.748;2.222;2023-04-03T03:18:35;11.40;87.40
29345;DHT22;16339;48.748;2.222;2023-04-03T03:21:04;11.40;87.10
29345;DHT22;16339;48.748;2.222;2023-04-03T03:23:33;11.40;86.90
29345;DHT22;16339;48.748;2.222;2023-04-03T03:26:04;11.40;87.00
29345;DHT22;16339;48.748;2.222;2023-04-03T03:28:36;11.40;87.00
29345;DHT22;16339;48.748;2.222;2023-04-03T03:31:06;11.40;86.70
29345;DHT22;16339;48.748;2.222;2023-04-03T03:33:35;11.40;87.20
29345;DHT22;16339;48.748;2.222;2023-04-03T03:36:05;11.40;87.60
29345;DHT22;16339;48.748;2.222;2023-04-03T03:38:33;11.40;87.70
29345;DHT22;16339;48.748;2.222;2023-04-03T03:41:02;11.30;86.90
29345;DHT22;16339;48.748;2.222;2023-04-03T03:43:31;11.30;87.10
29345;DHT22;16339;48.748;2.222;2023-04-03T03:46:02;11.30;86.80
29345;DHT22;16339;48.748;2.222;2023-04-03T03:48:31;11.30;86.80
29345;DHT22;16339;48.748;2.222;2023-04-03T03:50:59;11.30;86.80
29345;DHT22;16339;48.748;2.222;2023-04-03T03:53:28;11.40;86.80
29345;DHT22;16339;48.748;2.222;2023-04-03T03:55:57;11.40;86.60
29345;DHT22;16339;48.748;2.222;2023-04-03T03:58:25;11.40;86.60
29345;DHT22;16339;48.748;2.222;2023-04-03T04:00:54;11.30;86.40
29345;DHT22;16339;48.748;2.222;2023-04-03T04:03:25;11.30;86.50
29345;DHT22;16339;48.748;2.222;2023-04-03T04:05:54;11.30;86.60
29345;DHT22;16339;48.748;2.222;2023-04-03T04:08:23;11.30;86.70
29345;DHT22;16339;48.748;2.222;2023-04-03T04:10:52;11.20;86.60
29345;DHT22;16339;48.748;2.222;2023-04-03T04:13:21;11.30;86.70
29345;DHT22;16339;48.748;2.222;2023-04-03T04:15:50;11.30;86.80
29345;DHT22;16339;48.748;2.222;2023-04-03T04:18:18;11.20;86.40
29345;DHT22;16339;48.748;2.222;2023-04-03T04:20:52;11.30;86.50
29345;DHT22;16339;48.748;2.222;2023-04-03T04:23:20;11.30;86.60
29345;DHT22;16339;48.748;2.222;2023-04-03T04:25:49;11.30;86.50
29345;DHT22;16339;48.748;2.222;2023-04-03T04:28:18;11.10;86.20
29345;DHT22;16339;48.748;2.222;2023-04-03T04:30:47;11.20;86.50
29345;DHT22;16339;48.748;2.222;2023-04-03T04:33:15;11.30;86.20
29345;DHT22;16339;48.748;2.222;2023-04-03T04:35:46;11.30;85.80
29345;DHT22;16339;48.748;2.222;2023-04-03T04:38:18;11.30;85.60
29345;DHT22;16339;48.748;2.222;2023-04-03T04:40:47;11.30;85.50
29345;DHT22;16339;48.748;2.222;2023-04-03T04:43:16;11.20;85.00
29345;DHT22;16339;48.748;2.222;2023-04-03T04:45:47;11.10;84.90
29345;DHT22;16339;48.748;2.222;2023-04-03T04:48:15;11.10;85.00
29345;DHT22;16339;48.748;2.222;2023-04-03T04:50:44;11.00;85.00
29345;DHT22;16339;48.748;2.222;2023-04-03T04:53:13;11.10;85.20
29345;DHT22;16339;48.748;2.222;2023-04-03T04:55:44;11.10;84.80
29345;DHT22;16339;48.748;2.222;2023-04-03T04:58:13;11.10;84.90
29345;DHT22;16339;48.748;2.222;2023-04-03T05:00:42;11.20;85.00
29345;DHT22;16339;48.748;2.222;2023-04-03T05:03:11;11.20;84.40
29345;DHT22;16339;48.748;2.222;2023-04-03T05:05:40;11.20;84.40
29345;DHT22;16339;48.748;2.222;2023-04-03T05:08:09;11.10;84.30
29345;DHT22;16339;48.748;2.222;2023-04-03T05:10:38;11.20;84.40
29345;DHT22;16339;48.748;2.222;2023-04-03T05:13:10;11.20;84.10
29345;DHT22;16339;48.748;2.222;2023-04-03T05:15:39;11.10;83.60
29345;DHT22;16339;48.748;2.222;2023-04-03T05:18:07;11.10;83.00
29345;DHT22;16339;48.748;2.222;2023-04-03T05:20:36;11.20;83.30
29345;DHT22;16339;48.748;2.222;2023-04-03T05:23:05;11.10;82.80
29345;DHT22;16339;48.748;2.222;2023-04-03T05:25:34;11.20;82.80
29345;DHT22;16339;48.748;2.222;2023-04-03T05:28:03;11.20;82.70
29345;DHT22;16339;48.748;2.222;2023-04-03T05:30:34;11.10;82.80
29345;DHT22;16339;48.748;2.222;2023-04-03T05:33:03;11.10;81.60
29345;DHT22;16339;48.748;2.222;2023-04-03T05:35:32;11.20;81.60
29345;DHT22;16339;48.748;2.222;2023-04-03T05:38:00;11.10;80.80
29345;DHT22;16339;48.748;2.222;2023-04-03T05:40:29;11.10;81.00
29345;DHT22;16339;48.748;2.222;2023-04-03T05:42:58;11.10;81.00
29345;DHT22;16339;48.748;2.222;2023-04-03T05:45:26;11.10;80.60
29345;DHT22;16339;48.748;2.222;2023-04-03T05:47:57;11.10;80.20
29345;DHT22;16339;48.748;2.222;2023-04-03T05:50:26;11.10;80.70
29345;DHT22;16339;48.748;2.222;2023-04-03T05:52:57;11.00;80.00
29345;DHT22;16339;48.748;2.222;2023-04-03T05:55:26;11.00;79.70
29345;DHT22;16339;48.748;2.222;2023-04-03T05:57:55;11.00;79.70
29345;DHT22;16339;48.748;2.222;2023-04-03T06:00:23;10.70;79.00
29345;DHT22;16339;48.748;2.222;2023-04-03T06:02:53;10.80;79.60
29345;DHT22;16339;48.748;2.222;2023-04-03T06:05:24;10.90;79.90
29345;DHT22;16339;48.748;2.222;2023-04-03T06:07:53;10.80;79.40
29345;DHT22;16339;48.748;2.222;2023-04-03T06:10:23;11.00;79.70
29345;DHT22;16339;48.748;2.222;2023-04-03T06:12:51;11.00;79.60
29345;DHT22;16339;48.748;2.222;2023-04-03T06:15:20;11.00;79.10
29345;DHT22;16339;48.748;2.222;2023-04-03T06:17:50;10.90;78.60
29345;DHT22;16339;48.748;2.222;2023-04-03T06:20:19;10.70;78.40
29345;DHT22;16339;48.748;2.222;2023-04-03T06:22:50;10.80;79.20
29345;DHT22;16339;48.748;2.222;2023-04-03T06:25:19;11.00;79.10
29345;DHT22;16339;48.748;2.222;2023-04-03T06:27:47;11.00;78.90
29345;DHT22;16339;48.748;2.222;2023-04-03T06:30:16;11.10;78.80
29345;DHT22;16339;48.748;2.222;2023-04-03T06:32:45;11.20;78.70
29345;DHT22;16339;48.748;2.222;2023-04-03T06:35:14;11.30;78.60
29345;DHT22;16339;48.748;2.222;2023-04-03T06:37:43;11.30;78.30
29345;DHT22;16339;48.748;2.222;2023-04-03T06:40:19;11.30;78.20
29345;DHT22;16339;48.748;2.222;2023-04-03T06:42:49;11.20;77.60
29345;DHT22;16339;48.748;2.222;2023-04-03T06:45:18;11.10;76.90
29345;DHT22;16339;48.748;2.222;2023-04-03T06:47:47;11.20;77.50
29345;DHT22;16339;48.748;2.222;2023-04-03T06:50:16;11.30;77.80
29345;DHT22;16339;48.748;2.222;2023-04-03T06:52:45;11.30;77.70
29345;DHT22;16339;48.748;2.222;2023-04-03T06:55:16;11.40;77.10
29345;DHT22;16339;48.748;2.222;2023-04-03T06:57:45;11.40;77.00
29345;DHT22;16339;48.748;2.222;2023-04-03T07:00:15;11.50;77.40
29345;DHT22;16339;48.748;2.222;2023-04-03T07:02:44;11.40;77.00
29345;DHT22;16339;48.748;2.222;2023-04-03T07:05:13;11.50;77.10
29345;DHT22;16339;48.748;2.222;2023-04-03T07:07:41;11.50;77.20
29345;DHT22;16339;48.748;2.222;2023-04-03T07:10:10;11.50;78.80
29345;DHT22;16339;48.748;2.222;2023-04-03T07:12:42;11.50;78.60
29345;DHT22;16339;48.748;2.222;2023-04-03T07:15:10;11.50;78.70
29345;DHT22;16339;48.748;2.222;2023-04-03T07:17:40;11.50;79.40
29345;DHT22;16339;48.748;2.222;2023-04-03T07:20:10;11.50;79.00
29345;DHT22;16339;48.748;2.222;2023-04-03T07:22:39;11.40;77.90
29345;DHT22;16339;48.748;2.222;2023-04-03T07:25:08;11.50;78.30
29345;DHT22;16339;48.748;2.222;2023-04-03T07:27:36;11.60;78.40
29345;DHT22;16339;48.748;2.222;2023-04-03T07:30:09;11.70;78.00
29345;DHT22;16339;48.748;2.222;2023-04-03T07:32:39;11.70;77.70
29345;DHT22;16339;48.748;2.222;2023-04-03T07:35:08;11.80;77.20
29345;DHT22;16339;48.748;2.222;2023-04-03T07:37:37;11.80;77.40
29345;DHT22;16339;48.748;2.222;2023-04-03T07:40:07;11.80;76.60
29345;DHT22;16339;48.748;2.222;2023-04-03T07:42:36;11.80;75.50
29345;DHT22;16339;48.748;2.222;2023-04-03T07:45:08;11.70;76.50
29345;DHT22;16339;48.748;2.222;2023-04-03T07:47:37;11.80;75.70
29345;DHT22;16339;48.748;2.222;2023-04-03T07:50:07;11.80;76.10
29345;DHT22;16339;48.748;2.222;2023-04-03T07:52:36;11.90;76.30
29345;DHT22;16339;48.748;2.222;2023-04-03T07:55:06;11.90;76.20
29345;DHT22;16339;48.748;2.222;2023-04-03T07:57:34;11.90;75.80
29345;DHT22;16339;48.748;2.222;2023-04-03T08:00:04;11.90;75.50
29345;DHT22;16339;48.748;2.222;2023-04-03T08:02:37;11.90;75.60
29345;DHT22;16339;48.748;2.222;2023-04-03T08:05:06;11.90;75.80
29345;DHT22;16339;48.748;2.222;2023-04-03T08:07:36;12.00;75.70
29345;DHT22;16339;48.748;2.222;2023-04-03T08:10:06;12.00;75.50
29345;DHT22;16339;48.748;2.222;2023-04-03T08:12:35;12.10;75.40
29345;DHT22;16339;48.748;2.222;2023-04-03T08:15:06;11.90;74.70
29345;DHT22;16339;48.748;2.222;2023-04-03T08:17:38;12.00;75.70
29345;DHT22;16339;48.748;2.222;2023-04-03T08:20:09;12.10;76.00
29345;DHT22;16339;48.748;2.222;2023-04-03T08:22:38;12.20;75.90
29345;DHT22;16339;48.748;2.222;2023-04-03T08:25:08;12.30;75.80
29345;DHT22;16339;48.748;2.222;2023-04-03T08:27:36;12.30;75.30
29345;DHT22;16339;48.748;2.222;2023-04-03T08:30:07;12.40;75.00
29345;DHT22;16339;48.748;2.222;2023-04-03T08:32:38;12.50;75.00
29345;DHT22;16339;48.748;2.222;2023-04-03T08:35:08;12.50;74.70
29345;DHT22;16339;48.748;2.222;2023-04-03T08:37:38;12.60;74.40
29345;DHT22;16339;48.748;2.222;2023-04-03T08:40:12;12.70;74.60
29345;DHT22;16339;48.748;2.222;2023-04-03T08:42:48;12.70;73.80
29345;DHT22;16339;48.748;2.222;2023-04-03T08:45:22;12.70;73.50
29345;DHT22;16339;48.748;2.222;2023-04-03T08:48:02;12.80;73.00
29345;DHT22;16339;48.748;2.222;2023-04-03T08:50:37;12.80;73.70
29345;DHT22;16339;48.748;2.222;2023-04-03T08:53:13;12.80;71.90
29345;DHT22;16339;48.748;2.222;2023-04-03T08:55:46;12.70;71.70
29345;DHT22;16339;48.748;2.222;2023-04-03T08:58:18;12.70;72.00
29345;DHT22;16339;48.748;2.222;2023-04-03T09:00:49;12.70;71.60
29345;DHT22;16339;48.748;2.222;2023-04-03T09:03:23;12.70;71.20
29345;DHT22;16339;48.748;2.222;2023-04-03T09:05:55;12.80;71.70
29345;DHT22;16339;48.748;2.222;2023-04-03T09:08:27;12.80;71.60
29345;DHT22;16339;48.748;2.222;2023-04-03T09:11:08;12.80;70.80
29345;DHT22;16339;48.748;2.222;2023-04-03T09:13:44;12.80;71.30
29345;DHT22;16339;48.748;2.222;2023-04-03T09:16:25;12.90;71.30
29345;DHT22;16339;48.748;2.222;2023-04-03T09:19:05;13.00;71.40
29345;DHT22;16339;48.748;2.222;2023-04-03T09:21:38;13.00;70.50
29345;DHT22;16339;48.748;2.222;2023-04-03T09:24:09;13.00;69.50
29345;DHT22;16339;48.748;2.222;2023-04-03T09:26:42;13.00;69.40
29345;DHT22;16339;48.748;2.222;2023-04-03T09:29:17;12.90;69.50
29345;DHT22;16339;48.748;2.222;2023-04-03T09:31:48;12.50;68.50
29345;DHT22;16339;48.748;2.222;2023-04-03T09:34:23;12.60;69.30
29345;DHT22;16339;48.748;2.222;2023-04-03T09:36:53;12.50;70.20
29345;DHT22;16339;48.748;2.222;2023-04-03T09:39:24;12.60;71.10
29345;DHT22;16339;48.748;2.222;2023-04-03T09:42:04;12.70;71.60
29345;DHT22;16339;48.748;2.222;2023-04-03T09:44:34;12.80;70.90
29345;DHT22;16339;48.748;2.222;2023-04-03T09:47:18;12.90;70.00
29345;DHT22;16339;48.748;2.222;2023-04-03T09:49:51;12.70;71.60
29345;DHT22;16339;48.748;2.222;2023-04-03T09:52:36;12.70;71.30
29345;DHT22;16339;48.748;2.222;2023-04-03T09:55:07;12.80;71.60
29345;DHT22;16339;48.748;2.222;2023-04-03T09:57:36;12.70;70.80
29345;DHT22;16339;48.748;2.222;2023-04-03T10:00:10;12.60;69.40
29345;DHT22;16339;48.748;2.222;2023-04-03T10:02:50;12.70;69.60
29345;DHT22;16339;48.748;2.222;2023-04-03T10:05:32;12.70;70.00
29345;DHT22;16339;48.748;2.222;2023-04-03T10:08:10;12.60;68.90
29345;DHT22;16339;48.748;2.222;2023-04-03T10:10:40;12.60;69.90
29345;DHT22;16339;48.748;2.222;2023-04-03T10:13:13;12.50;70.50
29345;DHT22;16339;48.748;2.222;2023-04-03T10:15:45;12.60;70.80
29345;DHT22;16339;48.748;2.222;2023-04-03T10:18:27;12.40;71.40
29345;DHT22;16339;48.748;2.222;2023-04-03T10:21:06;12.40;71.60
29345;DHT22;16339;48.748;2.222;2023-04-03T10:23:42;12.50;71.20
29345;DHT22;16339;48.748;2.222;2023-04-03T10:26:17;12.50;71.50
29345;DHT22;16339;48.748;2.222;2023-04-03T10:28:54;12.50;71.00
29345;DHT22;16339;48.748;2.222;2023-04-03T10:31:33;12.50;71.00
29345;DHT22;16339;48.748;2.222;2023-04-03T10:34:09;12.50;71.40
29345;DHT22;16339;48.748;2.222;2023-04-03T10:36:51;12.50;71.40
29345;DHT22;16339;48.748;2.222;2023-04-03T10:39:27;12.50;71.70
29345;DHT22;16339;48.748;2.222;2023-04-03T10:42:04;12.60;72.20
29345;DHT22;16339;48.748;2.222;2023-04-03T10:44:42;12.60;72.30
29345;DHT22;16339;48.748;2.222;2023-04-03T10:47:18;12.60;71.70
29345;DHT22;16339;48.748;2.222;2023-04-03T10:49:55;12.50;71.70
29345;DHT22;16339;48.748;2.222;2023-04-03T10:52:37;12.60;70.50
29345;DHT22;16339;48.748;2.222;2023-04-03T10:55:24;12.60;70.80
29345;DHT22;16339;48.748;2.222;2023-04-03T10:57:59;12.60;69.20
29345;DHT22;16339;48.748;2.222;2023-04-03T11:00:35;12.70;69.00
29345;DHT22;16339;48.748;2.222;2023-04-03T11:03:08;12.70;69.40
29345;DHT22;16339;48.748;2.222;2023-04-03T11:05:42;12.70;68.40
29345;DHT22;16339;48.748;2.222;2023-04-03T11:08:23;12.90;69.20
29345;DHT22;16339;48.748;2.222;2023-04-03T11:10:56;12.90;69.10
29345;DHT22;16339;48.748;2.222;2023-04-03T11:13:30;12.90;67.80
29345;DHT22;16339;48.748;2.222;2023-04-03T11:16:04;12.90;67.10
29345;DHT22;16339;48.748;2.222;2023-04-03T11:18:39;13.00;67.10
29345;DHT22;16339;48.748;2.222;2023-04-03T11:21:14;13.00;66.60
29345;DHT22;16339;48.748;2.222;2023-04-03T11:23:51;13.10;67.50
29345;DHT22;16339;48.748;2.222;2023-04-03T11:26:22;13.10;67.80
29345;DHT22;16339;48.748;2.222;2023-04-03T11:28:57;13.20;67.20
29345;DHT22;16339;48.748;2.222;2023-04-03T11:31:36;13.20;67.10
29345;DHT22;16339;48.748;2.222;2023-04-03T11:34:15;13.20;65.60
29345;DHT22;16339;48.748;2.222;2023-04-03T11:36:49;13.30;65.50
29345;DHT22;16339;48.748;2.222;2023-04-03T11:39:25;13.30;65.80
29345;DHT22;16339;48.748;2.222;2023-04-03T11:41:55;13.10;65.50
29345;DHT22;16339;48.748;2.222;2023-04-03T11:44:34;13.10;65.80
29345;DHT22;16339;48.748;2.222;2023-04-03T11:47:05;13.10;66.70
29345;DHT22;16339;48.748;2.222;2023-04-03T11:49:53;13.30;66.20
29345;DHT22;16339;48.748;2.222;2023-04-03T11:55:58;13.40;65.40
29345;DHT22;16339;48.748;2.222;2023-04-03T11:58:29;13.50;65.10
29345;DHT22;16339;48.748;2.222;2023-04-03T12:01:05;13.60;64.60
29345;DHT22;16339;48.748;2.222;2023-04-03T12:03:57;13.70;63.90
29345;DHT22;16339;48.748;2.222;2023-04-03T12:06:51;13.80;65.20
29345;DHT22;16339;48.748;2.222;2023-04-03T12:09:31;13.70;65.60
29345;DHT22;16339;48.748;2.222;2023-04-03T12:12:24;13.40;65.40
29345;DHT22;16339;48.748;2.222;2023-04-03T12:14:54;13.50;65.40
29345;DHT22;16339;48.748;2.222;2023-04-03T12:17:27;13.60;62.50
29345;DHT22;16339;48.748;2.222;2023-04-03T12:19:56;13.60;63.10
29345;DHT22;16339;48.748;2.222;2023-04-03T12:22:25;13.80;63.50
29345;DHT22;16339;48.748;2.222;2023-04-03T12:24:54;13.90;63.80
29345;DHT22;16339;48.748;2.222;2023-04-03T12:36:30;13.80;62.00
29345;DHT22;16339;48.748;2.222;2023-04-03T12:39:10;13.80;61.90
29345;DHT22;16339;48.748;2.222;2023-04-03T12:41:48;14.00;61.00
29345;DHT22;16339;48.748;2.222;2023-04-03T12:44:31;14.20;61.60
29345;DHT22;16339;48.748;2.222;2023-04-03T12:47:16;14.30;61.20
29345;DHT22;16339;48.748;2.222;2023-04-03T12:49:49;14.40;60.50
29345;DHT22;16339;48.748;2.222;2023-04-03T12:52:30;14.50;60.60
29345;DHT22;16339;48.748;2.222;2023-04-03T12:55:00;14.50;60.10
29345;DHT22;16339;48.748;2.222;2023-04-03T12:57:31;14.60;60.90
29345;DHT22;16339;48.748;2.222;2023-04-03T13:00:19;14.60;60.50
29345;DHT22;16339;48.748;2.222;2023-04-03T13:02:49;14.80;61.60
29345;DHT22;16339;48.748;2.222;2023-04-03T13:05:19;14.90;60.30
29345;DHT22;16339;48.748;2.222;2023-04-03T13:07:54;15.00;60.90
29345;DHT22;16339;48.748;2.222;2023-04-03T13:10:24;15.00;60.40
29345;DHT22;16339;48.748;2.222;2023-04-03T13:12:54;15.10;60.80
29345;DHT22;16339;48.748;2.222;2023-04-03T13:15:25;15.10;59.50
29345;DHT22;16339;48.748;2.222;2023-04-03T13:17:55;15.40;59.70
29345;DHT22;16339;48.748;2.222;2023-04-03T13:20:26;15.40;60.80
29345;DHT22;16339;48.748;2.222;2023-04-03T13:23:02;15.50;58.80
29345;DHT22;16339;48.748;2.222;2023-04-03T13:25:34;15.60;58.60
29345;DHT22;16339;48.748;2.222;2023-04-03T13:28:06;15.50;58.70
29345;DHT22;16339;48.748;2.222;2023-04-03T13:30:38;15.60;59.20
29345;DHT22;16339;48.748;2.222;2023-04-03T13:33:20;15.70;58.80
29345;DHT22;16339;48.748;2.222;2023-04-03T13:35:55;15.80;58.80
29345;DHT22;16339;48.748;2.222;2023-04-03T13:38:30;15.80;58.60
29345;DHT22;16339;48.748;2.222;2023-04-03T13:41:02;15.90;58.70
29345;DHT22;16339;48.748;2.222;2023-04-03T13:43:33;15.90;59.00
29345;DHT22;16339;48.748;2.222;2023-04-03T13:46:05;15.90;58.50
29345;DHT22;16339;48.748;2.222;2023-04-03T13:48:52;16.00;58.20
29345;DHT22;16339;48.748;2.222;2023-04-03T13:51:23;15.90;57.50
29345;DHT22;16339;48.748;2.222;2023-04-03T13:53:57;15.80;58.00
29345;DHT22;16339;48.748;2.222;2023-04-03T13:56:31;15.80;58.60
29345;DHT22;16339;48.748;2.222;2023-04-03T13:59:06;15.50;57.90
29345;DHT22;16339;48.748;2.222;2023-04-03T14:01:50;15.50;58.60
29345;DHT22;16339;48.748;2.222;2023-04-03T14:04:20;15.60;59.30
29345;DHT22;16339;48.748;2.222;2023-04-03T14:06:49;15.60;60.00
29345;DHT22;16339;48.748;2.222;2023-04-03T14:09:21;15.80;59.00
29345;DHT22;16339;48.748;2.222;2023-04-03T14:11:55;15.90;58.20
29345;DHT22;16339;48.748;2.222;2023-04-03T14:14:27;15.90;58.00
29345;DHT22;16339;48.748;2.222;2023-04-03T14:17:01;16.00;57.80
29345;DHT22;16339;48.748;2.222;2023-04-03T14:19:31;16.00;57.40
29345;DHT22;16339;48.748;2.222;2023-04-03T14:22:07;16.10;57.50
29345;DHT22;16339;48.748;2.222;2023-04-03T14:24:41;16.10;57.40
29345;DHT22;16339;48.748;2.222;2023-04-03T14:27:16;16.20;57.90
29345;DHT22;16339;48.748;2.222;2023-04-03T14:29:45;16.20;58.40
29345;DHT22;16339;48.748;2.222;2023-04-03T14:32:16;16.20;58.50
29345;DHT22;16339;48.748;2.222;2023-04-03T14:34:47;16.30;57.60
29345;DHT22;16339;48.748;2.222;2023-04-03T14:37:18;16.30;58.10
29345;DHT22;16339;48.748;2.222;2023-04-03T14:39:51;16.30;57.50
29345;DHT22;16339;48.748;2.222;2023-04-03T14:42:22;16.30;57.80
29345;DHT22;16339;48.748;2.222;2023-04-03T14:44:52;16.30;58.30
29345;DHT22;16339;48.748;2.222;2023-04-03T14:47:24;16.30;57.30
29345;DHT22;16339;48.748;2.222;2023-04-03T14:49:54;16.50;58.10
29345;DHT22;16339;48.748;2.222;2023-04-03T14:52:25;16.40;57.50
29345;DHT22;16339;48.748;2.222;2023-04-03T14:54:57;16.50;57.70
29345;DHT22;16339;48.748;2.222;2023-04-03T14:57:28;16.50;57.60
29345;DHT22;16339;48.748;2.222;2023-04-03T14:59:57;16.50;57.30
29345;DHT22;16339;48.748;2.222;2023-04-03T15:02:29;16.50;57.60
29345;DHT22;16339;48.748;2.222;2023-04-03T15:04:58;16.60;58.00
29345;DHT22;16339;48.748;2.222;2023-04-03T15:07:30;16.60;57.80
29345;DHT22;16339;48.748;2.222;2023-04-03T15:10:09;16.50;57.00
29345;DHT22;16339;48.748;2.222;2023-04-03T15:12:42;16.60;57.70
29345;DHT22;16339;48.748;2.222;2023-04-03T15:15:12;16.60;57.30
29345;DHT22;16339;48.748;2.222;2023-04-03T15:17:41;16.60;57.20
29345;DHT22;16339;48.748;2.222;2023-04-03T15:20:13;16.70;57.40
29345;DHT22;16339;48.748;2.222;2023-04-03T15:22:42;16.60;56.40
29345;DHT22;16339;48.748;2.222;2023-04-03T15:25:14;16.50;56.80
29345;DHT22;16339;48.748;2.222;2023-04-03T15:27:44;16.60;56.80
29345;DHT22;16339;48.748;2.222;2023-04-03T15:30:16;16.60;56.90
29345;DHT22;16339;48.748;2.222;2023-04-03T15:32:45;16.70;56.40
29345;DHT22;16339;48.748;2.222;2023-04-03T15:35:14;16.70;56.00
29345;DHT22;16339;48.748;2.222;2023-04-03T15:37:43;16.70;56.00
29345;DHT22;16339;48.748;2.222;2023-04-03T15:40:14;16.60;56.60
29345;DHT22;16339;48.748;2.222;2023-04-03T15:42:43;16.50;56.50
29345;DHT22;16339;48.748;2.222;2023-04-03T15:45:12;16.50;56.00
29345;DHT22;16339;48.748;2.222;2023-04-03T15:47:41;16.50;56.30
29345;DHT22;16339;48.748;2.222;2023-04-03T15:50:10;16.50;56.90
29345;DHT22;16339;48.748;2.222;2023-04-03T15:52:39;16.50;57.10
29345;DHT22;16339;48.748;2.222;2023-04-03T15:55:08;16.60;57.00
29345;DHT22;16339;48.748;2.222;2023-04-03T15:57:40;16.60;56.90
29345;DHT22;16339;48.748;2.222;2023-04-03T16:00:10;16.70;55.90
29345;DHT22;16339;48.748;2.222;2023-04-03T16:02:39;16.70;56.10
29345;DHT22;16339;48.748;2.222;2023-04-03T16:05:09;16.70;56.40
29345;DHT22;16339;48.748;2.222;2023-04-03T16:07:39;16.80;56.10
29345;DHT22;16339;48.748;2.222;2023-04-03T16:10:09;16.90;55.80
29345;DHT22;16339;48.748;2.222;2023-04-03T16:12:40;16.90;55.70